sensor_id;sensor_type;location;lat;lon;timestamp;P1;durP1;ratioP1;P2;durP2;ratioP2
62696;SDS011;48761;42.680;23.312;2023-01-15T00:02:16;31.08;;;17.02;;
62696;SDS011;48761;42.680;23.312;2023-01-15T00:04:42;33.08;;;18.42;;
62696;SDS011;48761;42.680;23.312;2023-01-15T00:07:08;31.20;;;18.20;;
62696;SDS011;48761;42.680;23.312;2023-01-15T00:09:34;35.13;;;18.50;;
62696;SDS011;48761;42.680;23.312;2023-01-15T00:12:00;30.08;;;17.40;;
62696;SDS011;48761;42.680;23.312;2023-01-15T00:14:26;29.65;;;16.80;;
62696;SDS011;48761;42.680;23.312;2023-01-15T00:16:52;32.08;;;17.90;;
62696;SDS011;48761;42.680;23.312;2023-01-15T00:19:18;37.47;;;19.90;;
62696;SDS011;48761;42.680;23.312;2023-01-15T00:21:44;33.05;;;18.67;;
62696;SDS011;48761;42.680;23.312;2023-01-15T00:24:10;33.30;;;17.73;;
62696;SDS011;48761;42.680;23.312;2023-01-15T00:26:36;28.63;;;17.40;;
62696;SDS011;48761;42.680;23.312;2023-01-15T00:29:02;28.88;;;17.50;;
62696;SDS011;48761;42.680;23.312;2023-01-15T00:31:29;29.90;;;16.75;;
62696;SDS011;48761;42.680;23.312;2023-01-15T00:33:56;24.85;;;15.07;;
62696;SDS011;48761;42.680;23.312;2023-01-15T00:36:22;28.27;;;15.32;;
62696;SDS011;48761;42.680;23.312;2023-01-15T00:38:48;32.75;;;17.00;;
62696;SDS011;48761;42.680;23.312;2023-01-15T00:41:14;28.45;;;16.27;;
62696;SDS011;48761;42.680;23.312;2023-01-15T00:43:40;28.88;;;16.13;;
62696;SDS011;48761;42.680;23.312;2023-01-15T00:46:06;27.17;;;15.98;;
62696;SDS011;48761;42.680;23.312;2023-01-15T00:48:31;26.58;;;15.90;;
62696;SDS011;48761;42.680;23.312;2023-01-15T00:50:57;28.10;;;15.30;;
62696;SDS011;48761;42.680;23.312;2023-01-15T00:53:23;25.98;;;15.93;;
62696;SDS011;48761;42.680;23.312;2023-01-15T00:55:49;26.27;;;15.45;;
62696;SDS011;48761;42.680;23.312;2023-01-15T00:58:15;27.45;;;16.58;;
62696;SDS011;48761;42.680;23.312;2023-01-15T01:00:41;25.60;;;16.15;;
62696;SDS011;48761;42.680;23.312;2023-01-15T01:03:07;31.05;;;16.58;;
62696;SDS011;48761;42.680;23.312;2023-01-15T01:05:33;26.85;;;16.38;;
62696;SDS011;48761;42.680;23.312;2023-01-15T01:07:58;32.22;;;16.23;;
62696;SDS011;48761;42.680;23.312;2023-01-15T01:10:25;27.77;;;16.08;;
62696;SDS011;48761;42.680;23.312;2023-01-15T01:12:51;29.13;;;16.52;;
62696;SDS011;48761;42.680;23.312;2023-01-15T01:15:21;27.38;;;16.17;;
62696;SDS011;48761;42.680;23.312;2023-01-15T01:17:47;29.27;;;15.73;;
62696;SDS011;48761;42.680;23.312;2023-01-15T01:20:14;22.85;;;14.43;;
62696;SDS011;48761;42.680;23.312;2023-01-15T01:22:41;25.15;;;14.70;;
62696;SDS011;48761;42.680;23.312;2023-01-15T01:25:08;26.33;;;14.55;;
62696;SDS011;48761;42.680;23.312;2023-01-15T01:27:35;28.17;;;15.30;;
62696;SDS011;48761;42.680;23.312;2023-01-15T01:30:01;30.30;;;15.10;;
62696;SDS011;48761;42.680;23.312;2023-01-15T01:32:27;30.10;;;16.75;;
62696;SDS011;48761;42.680;23.312;2023-01-15T01:34:52;26.17;;;14.75;;
62696;SDS011;48761;42.680;23.312;2023-01-15T01:37:18;24.70;;;14.70;;
62696;SDS011;48761;42.680;23.312;2023-01-15T01:39:44;26.38;;;14.65;;
62696;SDS011;48761;42.680;23.312;2023-01-15T01:42:11;26.33;;;15.20;;
62696;SDS011;48761;42.680;23.312;2023-01-15T01:47:04;28.58;;;17.02;;
62696;SDS011;48761;42.680;23.312;2023-01-15T01:49:32;29.08;;;16.35;;
62696;SDS011;48761;42.680;23.312;2023-01-15T01:52:02;28.27;;;15.90;;
62696;SDS011;48761;42.680;23.312;2023-01-15T01:54:32;29.38;;;17.38;;
62696;SDS011;48761;42.680;23.312;2023-01-15T01:57:01;27.00;;;16.10;;
62696;SDS011;48761;42.680;23.312;2023-01-15T01:59:28;27.05;;;16.95;;
62696;SDS011;48761;42.680;23.312;2023-01-15T02:01:54;29.83;;;17.23;;
62696;SDS011;48761;42.680;23.312;2023-01-15T02:04:20;31.27;;;17.42;;
62696;SDS011;48761;42.680;23.312;2023-01-15T02:06:48;28.70;;;18.02;;
62696;SDS011;48761;42.680;23.312;2023-01-15T02:09:15;34.33;;;19.20;;
62696;SDS011;48761;42.680;23.312;2023-01-15T02:11:41;34.72;;;18.98;;
62696;SDS011;48761;42.680;23.312;2023-01-15T02:25:18;34.97;;;19.83;;
62696;SDS011;48761;42.680;23.312;2023-01-15T02:30:41;37.38;;;20.33;;
62696;SDS011;48761;42.680;23.312;2023-01-15T02:33:18;36.60;;;20.23;;
62696;SDS011;48761;42.680;23.312;2023-01-15T02:35:54;38.25;;;20.70;;
62696;SDS011;48761;42.680;23.312;2023-01-15T02:38:22;37.30;;;20.33;;
62696;SDS011;48761;42.680;23.312;2023-01-15T02:40:53;31.75;;;19.45;;
62696;SDS011;48761;42.680;23.312;2023-01-15T02:43:22;39.13;;;20.67;;
62696;SDS011;48761;42.680;23.312;2023-01-15T02:45:52;38.65;;;21.30;;
62696;SDS011;48761;42.680;23.312;2023-01-15T02:48:22;35.90;;;19.27;;
62696;SDS011;48761;42.680;23.312;2023-01-15T02:50:53;39.58;;;21.10;;
62696;SDS011;48761;42.680;23.312;2023-01-15T02:53:24;35.35;;;20.17;;
62696;SDS011;48761;42.680;23.312;2023-01-15T02:55:53;37.70;;;20.27;;
62696;SDS011;48761;42.680;23.312;2023-01-15T02:58:23;35.75;;;19.23;;
62696;SDS011;48761;42.680;23.312;2023-01-15T03:00:53;34.00;;;19.50;;
62696;SDS011;48761;42.680;23.312;2023-01-15T03:03:24;35.08;;;19.48;;
62696;SDS011;48761;42.680;23.312;2023-01-15T03:06:03;36.58;;;19.15;;
62696;SDS011;48761;42.680;23.312;2023-01-15T03:08:35;37.45;;;19.00;;
62696;SDS011;48761;42.680;23.312;2023-01-15T03:11:14;34.83;;;18.55;;
62696;SDS011;48761;42.680;23.312;2023-01-15T03:19:14;33.65;;;19.08;;
62696;SDS011;48761;42.680;23.312;2023-01-15T03:21:58;32.25;;;17.92;;
62696;SDS011;48761;42.680;23.312;2023-01-15T03:25:05;33.20;;;17.58;;
62696;SDS011;48761;42.680;23.312;2023-01-15T03:27:28;33.83;;;18.67;;
62696;SDS011;48761;42.680;23.312;2023-01-15T03:29:58;32.75;;;17.33;;
62696;SDS011;48761;42.680;23.312;2023-01-15T03:32:27;26.75;;;15.95;;
62696;SDS011;48761;42.680;23.312;2023-01-15T03:34:54;23.35;;;14.30;;
62696;SDS011;48761;42.680;23.312;2023-01-15T03:37:21;29.00;;;15.45;;
62696;SDS011;48761;42.680;23.312;2023-01-15T03:39:49;28.35;;;15.30;;
62696;SDS011;48761;42.680;23.312;2023-01-15T03:55:53;21.58;;;12.73;;
62696;SDS011;48761;42.680;23.312;2023-01-15T03:58:28;22.23;;;13.25;;
62696;SDS011;48761;42.680;23.312;2023-01-15T04:01:00;21.30;;;12.93;;
62696;SDS011;48761;42.680;23.312;2023-01-15T04:03:29;21.63;;;13.00;;
62696;SDS011;48761;42.680;23.312;2023-01-15T04:05:58;23.65;;;12.30;;
62696;SDS011;48761;42.680;23.312;2023-01-15T04:08:26;19.75;;;12.15;;
62696;SDS011;48761;42.680;23.312;2023-01-15T04:10:56;20.25;;;12.57;;
62696;SDS011;48761;42.680;23.312;2023-01-15T04:13:23;21.17;;;12.20;;
62696;SDS011;48761;42.680;23.312;2023-01-15T04:15:50;22.25;;;11.50;;
62696;SDS011;48761;42.680;23.312;2023-01-15T04:18:16;20.50;;;10.77;;
62696;SDS011;48761;42.680;23.312;2023-01-15T04:20:43;18.42;;;10.95;;
62696;SDS011;48761;42.680;23.312;2023-01-15T04:23:09;20.88;;;11.73;;
62696;SDS011;48761;42.680;23.312;2023-01-15T04:25:36;17.98;;;10.18;;
62696;SDS011;48761;42.680;23.312;2023-01-15T04:28:02;17.13;;;10.95;;
62696;SDS011;48761;42.680;23.312;2023-01-15T04:30:28;19.83;;;10.98;;
62696;SDS011;48761;42.680;23.312;2023-01-15T04:32:54;17.88;;;10.27;;
62696;SDS011;48761;42.680;23.312;2023-01-15T04:35:20;16.63;;;10.63;;
62696;SDS011;48761;42.680;23.312;2023-01-15T04:37:46;19.25;;;11.00;;
62696;SDS011;48761;42.680;23.312;2023-01-15T04:40:12;21.58;;;11.32;;
62696;SDS011;48761;42.680;23.312;2023-01-15T04:42:41;23.08;;;11.25;;
62696;SDS011;48761;42.680;23.312;2023-01-15T04:45:15;20.60;;;10.93;;
62696;SDS011;48761;42.680;23.312;2023-01-15T04:47:41;19.60;;;11.48;;
62696;SDS011;48761;42.680;23.312;2023-01-15T04:50:07;20.33;;;11.32;;
62696;SDS011;48761;42.680;23.312;2023-01-15T04:52:34;18.63;;;11.07;;
62696;SDS011;48761;42.680;23.312;2023-01-15T04:55:00;22.45;;;12.23;;
62696;SDS011;48761;42.680;23.312;2023-01-15T04:57:26;18.83;;;11.25;;
62696;SDS011;48761;42.680;23.312;2023-01-15T04:59:52;18.50;;;11.52;;
62696;SDS011;48761;42.680;23.312;2023-01-15T05:02:18;18.52;;;11.10;;
62696;SDS011;48761;42.680;23.312;2023-01-15T05:04:44;22.73;;;12.30;;
62696;SDS011;48761;42.680;23.312;2023-01-15T05:07:10;24.15;;;12.23;;
62696;SDS011;48761;42.680;23.312;2023-01-15T05:09:36;20.23;;;11.85;;
62696;SDS011;48761;42.680;23.312;2023-01-15T05:12:02;20.48;;;12.02;;
62696;SDS011;48761;42.680;23.312;2023-01-15T05:14:28;20.95;;;11.80;;
62696;SDS011;48761;42.680;23.312;2023-01-15T05:16:54;18.95;;;11.75;;
62696;SDS011;48761;42.680;23.312;2023-01-15T05:19:20;20.55;;;11.98;;
62696;SDS011;48761;42.680;23.312;2023-01-15T05:21:45;22.73;;;12.30;;
62696;SDS011;48761;42.680;23.312;2023-01-15T05:24:13;26.38;;;12.45;;
62696;SDS011;48761;42.680;23.312;2023-01-15T05:26:41;23.13;;;13.52;;
62696;SDS011;48761;42.680;23.312;2023-01-15T05:29:07;27.50;;;13.73;;
62696;SDS011;48761;42.680;23.312;2023-01-15T05:31:34;28.33;;;15.15;;
62696;SDS011;48761;42.680;23.312;2023-01-15T05:34:00;23.33;;;13.98;;
62696;SDS011;48761;42.680;23.312;2023-01-15T05:36:28;23.58;;;13.55;;
62696;SDS011;48761;42.680;23.312;2023-01-15T05:38:55;27.83;;;14.30;;
62696;SDS011;48761;42.680;23.312;2023-01-15T05:41:21;26.50;;;14.75;;
62696;SDS011;48761;42.680;23.312;2023-01-15T05:43:47;27.27;;;15.02;;
62696;SDS011;48761;42.680;23.312;2023-01-15T05:46:13;26.48;;;14.45;;
62696;SDS011;48761;42.680;23.312;2023-01-15T05:48:39;29.77;;;14.80;;
62696;SDS011;48761;42.680;23.312;2023-01-15T05:51:06;33.67;;;15.27;;
62696;SDS011;48761;42.680;23.312;2023-01-15T05:53:32;31.85;;;15.95;;
62696;SDS011;48761;42.680;23.312;2023-01-15T05:55:59;30.00;;;15.13;;
62696;SDS011;48761;42.680;23.312;2023-01-15T05:58:26;23.95;;;14.60;;
62696;SDS011;48761;42.680;23.312;2023-01-15T06:00:52;31.77;;;15.75;;
62696;SDS011;48761;42.680;23.312;2023-01-15T06:03:17;29.63;;;16.60;;
62696;SDS011;48761;42.680;23.312;2023-01-15T06:05:48;33.33;;;16.70;;
62696;SDS011;48761;42.680;23.312;2023-01-15T06:08:15;36.77;;;18.67;;
62696;SDS011;48761;42.680;23.312;2023-01-15T06:10:43;32.65;;;17.42;;
62696;SDS011;48761;42.680;23.312;2023-01-15T06:13:09;35.97;;;18.83;;
62696;SDS011;48761;42.680;23.312;2023-01-15T06:15:35;33.15;;;19.15;;
62696;SDS011;48761;42.680;23.312;2023-01-15T06:18:01;35.15;;;19.20;;
62696;SDS011;48761;42.680;23.312;2023-01-15T06:20:27;34.60;;;19.27;;
62696;SDS011;48761;42.680;23.312;2023-01-15T06:22:53;34.88;;;19.42;;
62696;SDS011;48761;42.680;23.312;2023-01-15T06:25:19;33.85;;;19.27;;
62696;SDS011;48761;42.680;23.312;2023-01-15T06:27:45;38.15;;;19.90;;
62696;SDS011;48761;42.680;23.312;2023-01-15T06:30:11;34.55;;;19.30;;
62696;SDS011;48761;42.680;23.312;2023-01-15T06:32:37;34.50;;;18.92;;
62696;SDS011;48761;42.680;23.312;2023-01-15T06:35:03;37.88;;;19.05;;
62696;SDS011;48761;42.680;23.312;2023-01-15T06:37:29;35.20;;;19.40;;
62696;SDS011;48761;42.680;23.312;2023-01-15T06:39:55;34.03;;;19.88;;
62696;SDS011;48761;42.680;23.312;2023-01-15T06:42:21;35.60;;;18.13;;
62696;SDS011;48761;42.680;23.312;2023-01-15T06:44:47;37.42;;;19.48;;
62696;SDS011;48761;42.680;23.312;2023-01-15T06:47:14;33.05;;;17.73;;
62696;SDS011;48761;42.680;23.312;2023-01-15T06:49:41;31.00;;;18.73;;
62696;SDS011;48761;42.680;23.312;2023-01-15T06:52:07;34.00;;;19.20;;
62696;SDS011;48761;42.680;23.312;2023-01-15T06:54:33;33.30;;;17.48;;
62696;SDS011;48761;42.680;23.312;2023-01-15T06:56:59;34.33;;;18.33;;
62696;SDS011;48761;42.680;23.312;2023-01-15T06:59:25;32.38;;;17.70;;
62696;SDS011;48761;42.680;23.312;2023-01-15T07:01:51;34.15;;;19.65;;
62696;SDS011;48761;42.680;23.312;2023-01-15T07:04:17;32.03;;;18.00;;
62696;SDS011;48761;42.680;23.312;2023-01-15T07:06:43;33.95;;;17.65;;
62696;SDS011;48761;42.680;23.312;2023-01-15T07:09:09;29.60;;;17.17;;
62696;SDS011;48761;42.680;23.312;2023-01-15T07:11:35;32.08;;;18.35;;
62696;SDS011;48761;42.680;23.312;2023-01-15T07:14:01;30.67;;;18.27;;
62696;SDS011;48761;42.680;23.312;2023-01-15T07:16:27;34.13;;;18.40;;
62696;SDS011;48761;42.680;23.312;2023-01-15T07:18:53;32.60;;;18.25;;
62696;SDS011;48761;42.680;23.312;2023-01-15T07:21:20;34.92;;;17.45;;
62696;SDS011;48761;42.680;23.312;2023-01-15T07:23:46;30.33;;;16.63;;
62696;SDS011;48761;42.680;23.312;2023-01-15T07:26:12;34.65;;;17.80;;
62696;SDS011;48761;42.680;23.312;2023-01-15T07:28:38;30.58;;;17.52;;
62696;SDS011;48761;42.680;23.312;2023-01-15T07:31:04;30.65;;;17.35;;
62696;SDS011;48761;42.680;23.312;2023-01-15T07:33:30;33.78;;;18.15;;
62696;SDS011;48761;42.680;23.312;2023-01-15T07:35:57;33.53;;;17.67;;
62696;SDS011;48761;42.680;23.312;2023-01-15T07:38:23;31.55;;;18.35;;
62696;SDS011;48761;42.680;23.312;2023-01-15T07:40:48;34.42;;;18.35;;
62696;SDS011;48761;42.680;23.312;2023-01-15T07:43:15;31.98;;;17.98;;
62696;SDS011;48761;42.680;23.312;2023-01-15T07:45:41;34.80;;;19.13;;
62696;SDS011;48761;42.680;23.312;2023-01-15T07:48:09;32.47;;;17.55;;
62696;SDS011;48761;42.680;23.312;2023-01-15T07:50:35;23.55;;;13.93;;
62696;SDS011;48761;42.680;23.312;2023-01-15T07:53:01;24.48;;;14.82;;
62696;SDS011;48761;42.680;23.312;2023-01-15T07:55:27;24.15;;;14.63;;
62696;SDS011;48761;42.680;23.312;2023-01-15T07:57:53;27.33;;;14.77;;
62696;SDS011;48761;42.680;23.312;2023-01-15T08:00:20;24.63;;;13.95;;
62696;SDS011;48761;42.680;23.312;2023-01-15T08:02:47;27.13;;;15.00;;
62696;SDS011;48761;42.680;23.312;2023-01-15T08:05:13;26.10;;;14.90;;
62696;SDS011;48761;42.680;23.312;2023-01-15T08:07:40;27.23;;;14.55;;
62696;SDS011;48761;42.680;23.312;2023-01-15T08:10:07;23.45;;;13.93;;
62696;SDS011;48761;42.680;23.312;2023-01-15T08:12:34;24.40;;;13.50;;
62696;SDS011;48761;42.680;23.312;2023-01-15T08:15:00;25.02;;;14.65;;
62696;SDS011;48761;42.680;23.312;2023-01-15T08:17:26;23.35;;;14.13;;
62696;SDS011;48761;42.680;23.312;2023-01-15T08:19:52;19.65;;;11.80;;
62696;SDS011;48761;42.680;23.312;2023-01-15T08:22:18;19.95;;;11.85;;
62696;SDS011;48761;42.680;23.312;2023-01-15T08:24:44;19.90;;;13.07;;
62696;SDS011;48761;42.680;23.312;2023-01-15T08:27:10;26.60;;;13.95;;
62696;SDS011;48761;42.680;23.312;2023-01-15T08:29:36;25.02;;;13.60;;
62696;SDS011;48761;42.680;23.312;2023-01-15T08:32:02;20.52;;;12.77;;
62696;SDS011;48761;42.680;23.312;2023-01-15T08:34:28;21.60;;;12.80;;
62696;SDS011;48761;42.680;23.312;2023-01-15T08:36:54;26.35;;;13.00;;
62696;SDS011;48761;42.680;23.312;2023-01-15T08:39:20;18.55;;;12.27;;
62696;SDS011;48761;42.680;23.312;2023-01-15T08:41:46;25.17;;;13.25;;
62696;SDS011;48761;42.680;23.312;2023-01-15T08:44:12;22.23;;;12.43;;
62696;SDS011;48761;42.680;23.312;2023-01-15T08:46:38;21.42;;;12.48;;
62696;SDS011;48761;42.680;23.312;2023-01-15T08:49:04;19.58;;;12.40;;
62696;SDS011;48761;42.680;23.312;2023-01-15T08:51:30;24.95;;;13.13;;
62696;SDS011;48761;42.680;23.312;2023-01-15T08:53:55;24.35;;;14.27;;
62696;SDS011;48761;42.680;23.312;2023-01-15T08:56:22;21.65;;;12.10;;
62696;SDS011;48761;42.680;23.312;2023-01-15T08:58:47;21.88;;;12.25;;
62696;SDS011;48761;42.680;23.312;2023-01-15T09:01:13;21.52;;;13.85;;
62696;SDS011;48761;42.680;23.312;2023-01-15T09:03:39;20.80;;;12.75;;
62696;SDS011;48761;42.680;23.312;2023-01-15T09:06:06;23.13;;;13.63;;
62696;SDS011;48761;42.680;23.312;2023-01-15T09:08:32;26.88;;;14.27;;
62696;SDS011;48761;42.680;23.312;2023-01-15T09:10:58;22.65;;;12.93;;
62696;SDS011;48761;42.680;23.312;2023-01-15T09:13:26;22.92;;;13.88;;
62696;SDS011;48761;42.680;23.312;2023-01-15T09:15:53;25.02;;;13.93;;
62696;SDS011;48761;42.680;23.312;2023-01-15T09:18:19;27.67;;;14.45;;
62696;SDS011;48761;42.680;23.312;2023-01-15T09:20:45;24.83;;;13.40;;
62696;SDS011;48761;42.680;23.312;2023-01-15T09:23:11;22.10;;;13.65;;
62696;SDS011;48761;42.680;23.312;2023-01-15T09:25:37;22.77;;;13.68;;
62696;SDS011;48761;42.680;23.312;2023-01-15T09:28:03;22.50;;;13.75;;
62696;SDS011;48761;42.680;23.312;2023-01-15T09:30:29;22.45;;;13.73;;
62696;SDS011;48761;42.680;23.312;2023-01-15T09:32:55;22.33;;;13.52;;
62696;SDS011;48761;42.680;23.312;2023-01-15T09:35:21;25.20;;;14.40;;
62696;SDS011;48761;42.680;23.312;2023-01-15T09:37:51;24.23;;;14.15;;
62696;SDS011;48761;42.680;23.312;2023-01-15T09:48:55;27.40;;;17.55;;
62696;SDS011;48761;42.680;23.312;2023-01-15T09:56:47;31.90;;;18.55;;
62696;SDS011;48761;42.680;23.312;2023-01-15T09:59:35;36.92;;;21.17;;
62696;SDS011;48761;42.680;23.312;2023-01-15T10:02:03;37.47;;;22.40;;
62696;SDS011;48761;42.680;23.312;2023-01-15T10:04:44;41.35;;;23.73;;
62696;SDS011;48761;42.680;23.312;2023-01-15T10:07:40;40.20;;;22.60;;
62696;SDS011;48761;42.680;23.312;2023-01-15T10:10:26;46.40;;;23.15;;
62696;SDS011;48761;42.680;23.312;2023-01-15T10:12:57;39.83;;;23.08;;
62696;SDS011;48761;42.680;23.312;2023-01-15T10:15:41;40.55;;;22.20;;
62696;SDS011;48761;42.680;23.312;2023-01-15T10:18:12;32.72;;;19.33;;
62696;SDS011;48761;42.680;23.312;2023-01-15T10:20:59;35.67;;;19.60;;
62696;SDS011;48761;42.680;23.312;2023-01-15T10:26:29;37.88;;;19.20;;
62696;SDS011;48761;42.680;23.312;2023-01-15T10:35:20;35.83;;;19.60;;
62696;SDS011;48761;42.680;23.312;2023-01-15T10:37:53;31.58;;;18.48;;
62696;SDS011;48761;42.680;23.312;2023-01-15T10:43:47;29.00;;;15.85;;
62696;SDS011;48761;42.680;23.312;2023-01-15T10:46:18;28.77;;;16.15;;
62696;SDS011;48761;42.680;23.312;2023-01-15T10:48:51;30.80;;;16.15;;
62696;SDS011;48761;42.680;23.312;2023-01-15T10:51:22;29.13;;;16.73;;
62696;SDS011;48761;42.680;23.312;2023-01-15T10:53:53;28.95;;;14.85;;
62696;SDS011;48761;42.680;23.312;2023-01-15T10:58:58;26.60;;;15.02;;
62696;SDS011;48761;42.680;23.312;2023-01-15T11:01:45;29.88;;;16.40;;
62696;SDS011;48761;42.680;23.312;2023-01-15T11:04:11;29.98;;;15.77;;
62696;SDS011;48761;42.680;23.312;2023-01-15T11:06:38;26.67;;;15.77;;
62696;SDS011;48761;42.680;23.312;2023-01-15T11:09:04;27.05;;;15.85;;
62696;SDS011;48761;42.680;23.312;2023-01-15T11:14:10;31.80;;;15.85;;
62696;SDS011;48761;42.680;23.312;2023-01-15T11:16:36;27.25;;;15.45;;
62696;SDS011;48761;42.680;23.312;2023-01-15T11:19:04;28.48;;;16.75;;
62696;SDS011;48761;42.680;23.312;2023-01-15T11:21:31;23.70;;;13.93;;
62696;SDS011;48761;42.680;23.312;2023-01-15T11:23:57;27.05;;;14.88;;
62696;SDS011;48761;42.680;23.312;2023-01-15T11:26:25;26.73;;;14.15;;
62696;SDS011;48761;42.680;23.312;2023-01-15T11:28:57;27.70;;;15.27;;
62696;SDS011;48761;42.680;23.312;2023-01-15T11:31:36;31.35;;;17.30;;
62696;SDS011;48761;42.680;23.312;2023-01-15T11:34:05;30.48;;;16.15;;
62696;SDS011;48761;42.680;23.312;2023-01-15T11:36:41;26.25;;;14.95;;
62696;SDS011;48761;42.680;23.312;2023-01-15T11:39:20;32.55;;;16.10;;
62696;SDS011;48761;42.680;23.312;2023-01-15T11:41:56;29.35;;;16.88;;
62696;SDS011;48761;42.680;23.312;2023-01-15T11:44:23;25.90;;;15.15;;
62696;SDS011;48761;42.680;23.312;2023-01-15T11:46:49;30.55;;;16.25;;
62696;SDS011;48761;42.680;23.312;2023-01-15T11:49:20;25.25;;;14.85;;
62696;SDS011;48761;42.680;23.312;2023-01-15T11:51:46;24.77;;;14.90;;
62696;SDS011;48761;42.680;23.312;2023-01-15T11:54:14;26.98;;;15.40;;
62696;SDS011;48761;42.680;23.312;2023-01-15T11:56:41;23.73;;;13.82;;
62696;SDS011;48761;42.680;23.312;2023-01-15T11:59:13;22.80;;;13.40;;
62696;SDS011;48761;42.680;23.312;2023-01-15T12:07:23;28.67;;;15.02;;
62696;SDS011;48761;42.680;23.312;2023-01-15T12:29:08;18.35;;;12.40;;
62696;SDS011;48761;42.680;23.312;2023-01-15T12:31:44;21.58;;;13.02;;
62696;SDS011;48761;42.680;23.312;2023-01-15T12:34:18;20.63;;;12.65;;
62696;SDS011;48761;42.680;23.312;2023-01-15T12:36:50;19.30;;;11.27;;
62696;SDS011;48761;42.680;23.312;2023-01-15T12:39:21;20.35;;;11.73;;
62696;SDS011;48761;42.680;23.312;2023-01-15T12:41:58;17.50;;;10.63;;
62696;SDS011;48761;42.680;23.312;2023-01-15T12:44:34;16.08;;;10.13;;
62696;SDS011;48761;42.680;23.312;2023-01-15T12:47:20;16.13;;;9.80;;
62696;SDS011;48761;42.680;23.312;2023-01-15T12:52:43;16.17;;;8.98;;
62696;SDS011;48761;42.680;23.312;2023-01-15T12:55:14;16.77;;;10.10;;
62696;SDS011;48761;42.680;23.312;2023-01-15T12:57:50;17.10;;;9.82;;
62696;SDS011;48761;42.680;23.312;2023-01-15T13:03:08;15.30;;;9.38;;
62696;SDS011;48761;42.680;23.312;2023-01-15T13:05:45;14.43;;;8.80;;
62696;SDS011;48761;42.680;23.312;2023-01-15T13:10:44;15.35;;;9.57;;
62696;SDS011;48761;42.680;23.312;2023-01-15T13:15:46;15.20;;;9.73;;
62696;SDS011;48761;42.680;23.312;2023-01-15T13:20:49;16.08;;;10.00;;
62696;SDS011;48761;42.680;23.312;2023-01-15T13:33:49;16.50;;;10.00;;
62696;SDS011;48761;42.680;23.312;2023-01-15T13:36:20;18.65;;;10.40;;
62696;SDS011;48761;42.680;23.312;2023-01-15T13:38:52;17.98;;;10.50;;
62696;SDS011;48761;42.680;23.312;2023-01-15T13:41:20;20.17;;;11.00;;
62696;SDS011;48761;42.680;23.312;2023-01-15T13:43:53;15.65;;;10.00;;
62696;SDS011;48761;42.680;23.312;2023-01-15T13:46:25;21.65;;;11.55;;
62696;SDS011;48761;42.680;23.312;2023-01-15T13:48:51;23.40;;;11.50;;
62696;SDS011;48761;42.680;23.312;2023-01-15T13:53:55;18.83;;;10.68;;
62696;SDS011;48761;42.680;23.312;2023-01-15T13:56:32;17.77;;;10.68;;
62696;SDS011;48761;42.680;23.312;2023-01-15T13:58:59;19.02;;;10.55;;
62696;SDS011;48761;42.680;23.312;2023-01-15T14:04:16;17.95;;;10.27;;
62696;SDS011;48761;42.680;23.312;2023-01-15T14:28:36;16.50;;;10.20;;
62696;SDS011;48761;42.680;23.312;2023-01-15T14:31:06;16.60;;;10.02;;
62696;SDS011;48761;42.680;23.312;2023-01-15T14:36:29;19.98;;;9.60;;
62696;SDS011;48761;42.680;23.312;2023-01-15T14:39:03;16.05;;;10.75;;
62696;SDS011;48761;42.680;23.312;2023-01-15T14:41:34;21.00;;;10.93;;
62696;SDS011;48761;42.680;23.312;2023-01-15T14:44:01;21.92;;;13.35;;
62696;SDS011;48761;42.680;23.312;2023-01-15T14:46:29;19.02;;;10.90;;
62696;SDS011;48761;42.680;23.312;2023-01-15T14:48:56;16.70;;;11.00;;
62696;SDS011;48761;42.680;23.312;2023-01-15T14:53:58;21.27;;;12.30;;
62696;SDS011;48761;42.680;23.312;2023-01-15T14:56:29;19.70;;;12.65;;
62696;SDS011;48761;42.680;23.312;2023-01-15T15:01:49;22.08;;;13.30;;
62696;SDS011;48761;42.680;23.312;2023-01-15T15:05:00;21.40;;;12.93;;
62696;SDS011;48761;42.680;23.312;2023-01-15T15:07:12;20.80;;;13.07;;
62696;SDS011;48761;42.680;23.312;2023-01-15T15:09:43;23.63;;;14.23;;
62696;SDS011;48761;42.680;23.312;2023-01-15T15:12:28;23.17;;;13.77;;
62696;SDS011;48761;42.680;23.312;2023-01-15T15:23:26;28.55;;;16.67;;
62696;SDS011;48761;42.680;23.312;2023-01-15T15:25:58;27.58;;;16.35;;
62696;SDS011;48761;42.680;23.312;2023-01-15T15:28:31;26.98;;;16.35;;
62696;SDS011;48761;42.680;23.312;2023-01-15T15:30:58;26.83;;;15.75;;
62696;SDS011;48761;42.680;23.312;2023-01-15T15:33:25;32.90;;;16.98;;
62696;SDS011;48761;42.680;23.312;2023-01-15T15:35:59;30.65;;;17.42;;
62696;SDS011;48761;42.680;23.312;2023-01-15T15:38:25;28.75;;;18.20;;
62696;SDS011;48761;42.680;23.312;2023-01-15T15:40:52;29.38;;;17.73;;
62696;SDS011;48761;42.680;23.312;2023-01-15T15:45:53;33.55;;;20.05;;
62696;SDS011;48761;42.680;23.312;2023-01-15T15:48:32;33.80;;;19.67;;
62696;SDS011;48761;42.680;23.312;2023-01-15T15:51:00;34.40;;;20.55;;
62696;SDS011;48761;42.680;23.312;2023-01-15T15:53:26;42.45;;;21.23;;
62696;SDS011;48761;42.680;23.312;2023-01-15T15:55:52;36.40;;;21.75;;
62696;SDS011;48761;42.680;23.312;2023-01-15T15:58:22;39.95;;;22.33;;
62696;SDS011;48761;42.680;23.312;2023-01-15T16:00:53;42.75;;;22.75;;
62696;SDS011;48761;42.680;23.312;2023-01-15T16:03:20;45.75;;;24.50;;
62696;SDS011;48761;42.680;23.312;2023-01-15T16:06:05;44.33;;;23.58;;
62696;SDS011;48761;42.680;23.312;2023-01-15T16:08:32;50.60;;;24.05;;
62696;SDS011;48761;42.680;23.312;2023-01-15T16:11:01;45.05;;;23.50;;
62696;SDS011;48761;42.680;23.312;2023-01-15T16:13:31;44.67;;;24.10;;
62696;SDS011;48761;42.680;23.312;2023-01-15T16:16:01;45.72;;;23.75;;
62696;SDS011;48761;42.680;23.312;2023-01-15T16:18:38;43.67;;;22.30;;
62696;SDS011;48761;42.680;23.312;2023-01-15T16:21:07;43.58;;;22.90;;
62696;SDS011;48761;42.680;23.312;2023-01-15T16:23:34;44.33;;;22.75;;
62696;SDS011;48761;42.680;23.312;2023-01-15T16:28:45;46.53;;;22.77;;
62696;SDS011;48761;42.680;23.312;2023-01-15T16:31:17;40.00;;;21.27;;
62696;SDS011;48761;42.680;23.312;2023-01-15T16:33:44;45.80;;;23.83;;
62696;SDS011;48761;42.680;23.312;2023-01-15T16:36:11;45.53;;;23.08;;
62696;SDS011;48761;42.680;23.312;2023-01-15T16:38:39;47.17;;;23.67;;
62696;SDS011;48761;42.680;23.312;2023-01-15T16:41:14;42.30;;;23.58;;
62696;SDS011;48761;42.680;23.312;2023-01-15T16:43:50;51.83;;;26.08;;
62696;SDS011;48761;42.680;23.312;2023-01-15T16:46:19;44.88;;;22.85;;
62696;SDS011;48761;42.680;23.312;2023-01-15T16:48:47;43.90;;;22.17;;
62696;SDS011;48761;42.680;23.312;2023-01-15T16:51:29;43.58;;;23.30;;
62696;SDS011;48761;42.680;23.312;2023-01-15T16:53:56;47.88;;;24.65;;
62696;SDS011;48761;42.680;23.312;2023-01-15T16:59:18;50.88;;;24.63;;
62696;SDS011;48761;42.680;23.312;2023-01-15T17:02:11;50.85;;;24.85;;
62696;SDS011;48761;42.680;23.312;2023-01-15T17:04:44;51.30;;;24.15;;
62696;SDS011;48761;42.680;23.312;2023-01-15T17:09:39;48.10;;;23.73;;